sensor_id;sensor_type;location;lat;lon;timestamp;P1;durP1;ratioP1;P2;durP2;ratioP2
40847;SDS011;26570;50.962;5.340;2022-09-30T00:00:31;14.40;;;8.20;;
40847;SDS011;26570;50.962;5.340;2022-09-30T00:03:17;15.03;;;7.77;;
40847;SDS011;26570;50.962;5.340;2022-09-30T00:06:04;12.20;;;7.10;;
40847;SDS011;26570;50.962;5.340;2022-09-30T00:08:51;11.57;;;7.83;;
40847;SDS011;26570;50.962;5.340;2022-09-30T00:11:38;8.13;;;6.60;;
40847;SDS011;26570;50.962;5.340;2022-09-30T00:14:24;14.27;;;8.47;;
40847;SDS011;26570;50.962;5.340;2022-09-30T00:17:10;14.10;;;7.50;;
40847;SDS011;26570;50.962;5.340;2022-09-30T00:19:56;11.73;;;6.50;;
40847;SDS011;26570;50.962;5.340;2022-09-30T00:22:41;10.87;;;6.97;;
40847;SDS011;26570;50.962;5.340;2022-09-30T00:25:28;11.53;;;6.53;;
40847;SDS011;26570;50.962;5.340;2022-09-30T00:28:14;8.30;;;6.90;;
40847;SDS011;26570;50.962;5.340;2022-09-30T00:31:01;7.37;;;5.77;;
40847;SDS011;26570;50.962;5.340;2022-09-30T00:33:50;18.17;;;6.97;;
40847;SDS011;26570;50.962;5.340;2022-09-30T00:36:51;8.93;;;4.70;;
40847;SDS011;26570;50.962;5.340;2022-09-30T00:39:41;13.60;;;5.50;;
40847;SDS011;26570;50.962;5.340;2022-09-30T00:42:27;9.03;;;5.60;;
40847;SDS011;26570;50.962;5.340;2022-09-30T00:45:14;7.77;;;5.23;;
40847;SDS011;26570;50.962;5.340;2022-09-30T00:48:10;8.00;;;4.30;;
40847;SDS011;26570;50.962;5.340;2022-09-30T00:51:00;4.90;;;3.80;;
40847;SDS011;26570;50.962;5.340;2022-09-30T00:53:50;6.27;;;3.23;;
40847;SDS011;26570;50.962;5.340;2022-09-30T00:56:41;23.23;;;12.10;;
40847;SDS011;26570;50.962;5.340;2022-09-30T01:00:20;9.60;;;6.00;;
40847;SDS011;26570;50.962;5.340;2022-09-30T01:03:06;9.50;;;5.60;;
40847;SDS011;26570;50.962;5.340;2022-09-30T01:05:52;6.97;;;5.33;;
40847;SDS011;26570;50.962;5.340;2022-09-30T01:08:38;7.93;;;4.77;;
40847;SDS011;26570;50.962;5.340;2022-09-30T01:11:24;5.83;;;5.20;;
40847;SDS011;26570;50.962;5.340;2022-09-30T01:14:17;7.43;;;4.40;;
40847;SDS011;26570;50.962;5.340;2022-09-30T01:41:27;14.00;;;7.40;;
40847;SDS011;26570;50.962;5.340;2022-09-30T01:44:29;12.83;;;6.00;;
40847;SDS011;26570;50.962;5.340;2022-09-30T01:47:25;8.87;;;5.07;;
40847;SDS011;26570;50.962;5.340;2022-09-30T01:50:19;8.50;;;4.70;;
40847;SDS011;26570;50.962;5.340;2022-09-30T01:56:21;10.57;;;5.70;;
40847;SDS011;26570;50.962;5.340;2022-09-30T01:59:14;7.97;;;5.87;;
40847;SDS011;26570;50.962;5.340;2022-09-30T02:02:12;16.47;;;6.57;;
40847;SDS011;26570;50.962;5.340;2022-09-30T02:08:14;12.17;;;5.90;;
40847;SDS011;26570;50.962;5.340;2022-09-30T02:11:21;14.70;;;8.03;;
40847;SDS011;26570;50.962;5.340;2022-09-30T02:14:22;13.37;;;6.70;;
40847;SDS011;26570;50.962;5.340;2022-09-30T02:17:13;11.20;;;7.03;;
40847;SDS011;26570;50.962;5.340;2022-09-30T02:20:05;14.80;;;8.97;;
40847;SDS011;26570;50.962;5.340;2022-09-30T02:23:08;12.43;;;7.53;;
40847;SDS011;26570;50.962;5.340;2022-09-30T02:25:57;11.00;;;7.87;;
40847;SDS011;26570;50.962;5.340;2022-09-30T02:28:51;11.33;;;8.27;;
40847;SDS011;26570;50.962;5.340;2022-09-30T02:31:42;11.77;;;9.47;;
40847;SDS011;26570;50.962;5.340;2022-09-30T02:34:40;14.13;;;9.57;;
40847;SDS011;26570;50.962;5.340;2022-09-30T02:37:35;24.10;;;10.30;;
40847;SDS011;26570;50.962;5.340;2022-09-30T02:40:44;20.33;;;10.33;;
40847;SDS011;26570;50.962;5.340;2022-09-30T02:43:35;14.57;;;9.83;;
40847;SDS011;26570;50.962;5.340;2022-09-30T02:49:21;29.48;;;14.70;;
40847;SDS011;26570;50.962;5.340;2022-09-30T02:58:16;17.27;;;11.93;;
40847;SDS011;26570;50.962;5.340;2022-09-30T03:01:10;15.20;;;10.63;;
40847;SDS011;26570;50.962;5.340;2022-09-30T03:04:04;16.23;;;11.53;;
40847;SDS011;26570;50.962;5.340;2022-09-30T03:06:55;14.10;;;10.33;;
40847;SDS011;26570;50.962;5.340;2022-09-30T03:09:41;16.57;;;10.23;;
40847;SDS011;26570;50.962;5.340;2022-09-30T03:15:44;20.10;;;11.90;;
40847;SDS011;26570;50.962;5.340;2022-09-30T03:18:53;18.60;;;11.00;;
40847;SDS011;26570;50.962;5.340;2022-09-30T03:21:54;21.10;;;12.67;;
40847;SDS011;26570;50.962;5.340;2022-09-30T03:25:10;19.30;;;10.47;;
40847;SDS011;26570;50.962;5.340;2022-09-30T03:31:03;15.17;;;8.80;;
40847;SDS011;26570;50.962;5.340;2022-09-30T03:49:07;14.90;;;10.13;;
40847;SDS011;26570;50.962;5.340;2022-09-30T03:51:57;21.83;;;12.23;;
40847;SDS011;26570;50.962;5.340;2022-09-30T03:54:53;23.10;;;11.77;;
40847;SDS011;26570;50.962;5.340;2022-09-30T03:57:42;19.43;;;10.00;;
40847;SDS011;26570;50.962;5.340;2022-09-30T04:00:28;15.33;;;9.30;;
40847;SDS011;26570;50.962;5.340;2022-09-30T04:03:16;13.00;;;9.23;;
40847;SDS011;26570;50.962;5.340;2022-09-30T04:06:03;19.43;;;10.17;;
40847;SDS011;26570;50.962;5.340;2022-09-30T04:08:48;16.57;;;9.73;;
40847;SDS011;26570;50.962;5.340;2022-09-30T04:11:37;19.30;;;11.50;;
40847;SDS011;26570;50.962;5.340;2022-09-30T04:14:22;18.17;;;11.83;;
40847;SDS011;26570;50.962;5.340;2022-09-30T04:17:07;19.30;;;11.33;;
40847;SDS011;26570;50.962;5.340;2022-09-30T04:19:54;19.07;;;12.00;;
40847;SDS011;26570;50.962;5.340;2022-09-30T04:22:40;17.87;;;12.80;;
40847;SDS011;26570;50.962;5.340;2022-09-30T04:25:26;23.03;;;11.87;;
40847;SDS011;26570;50.962;5.340;2022-09-30T04:28:12;22.77;;;13.37;;
40847;SDS011;26570;50.962;5.340;2022-09-30T04:30:58;20.40;;;12.73;;
40847;SDS011;26570;50.962;5.340;2022-09-30T04:33:43;21.37;;;12.27;;
40847;SDS011;26570;50.962;5.340;2022-09-30T04:36:30;17.60;;;12.47;;
40847;SDS011;26570;50.962;5.340;2022-09-30T04:39:15;20.10;;;12.87;;
40847;SDS011;26570;50.962;5.340;2022-09-30T04:42:00;20.13;;;12.20;;
40847;SDS011;26570;50.962;5.340;2022-09-30T04:44:47;25.30;;;14.93;;
40847;SDS011;26570;50.962;5.340;2022-09-30T04:47:32;20.03;;;13.70;;
40847;SDS011;26570;50.962;5.340;2022-09-30T04:50:18;21.47;;;13.00;;
40847;SDS011;26570;50.962;5.340;2022-09-30T04:53:04;20.67;;;14.07;;
40847;SDS011;26570;50.962;5.340;2022-09-30T04:55:50;19.93;;;13.67;;
40847;SDS011;26570;50.962;5.340;2022-09-30T04:58:42;25.63;;;14.90;;
40847;SDS011;26570;50.962;5.340;2022-09-30T05:01:27;23.13;;;12.93;;
40847;SDS011;26570;50.962;5.340;2022-09-30T05:04:13;29.47;;;13.77;;
40847;SDS011;26570;50.962;5.340;2022-09-30T05:07:00;27.53;;;14.53;;
40847;SDS011;26570;50.962;5.340;2022-09-30T05:09:47;27.50;;;14.53;;
40847;SDS011;26570;50.962;5.340;2022-09-30T05:12:33;25.40;;;15.57;;
40847;SDS011;26570;50.962;5.340;2022-09-30T05:15:20;25.67;;;16.40;;
40847;SDS011;26570;50.962;5.340;2022-09-30T05:18:05;29.07;;;17.10;;
40847;SDS011;26570;50.962;5.340;2022-09-30T05:20:51;35.53;;;16.03;;
40847;SDS011;26570;50.962;5.340;2022-09-30T05:23:38;19.00;;;12.80;;
40847;SDS011;26570;50.962;5.340;2022-09-30T05:26:24;23.33;;;12.87;;
40847;SDS011;26570;50.962;5.340;2022-09-30T05:29:10;29.63;;;14.33;;
40847;SDS011;26570;50.962;5.340;2022-09-30T05:31:56;26.63;;;14.73;;
40847;SDS011;26570;50.962;5.340;2022-09-30T05:34:43;21.83;;;13.43;;
40847;SDS011;26570;50.962;5.340;2022-09-30T05:37:28;21.80;;;13.83;;
40847;SDS011;26570;50.962;5.340;2022-09-30T05:40:14;35.93;;;17.70;;
40847;SDS011;26570;50.962;5.340;2022-09-30T05:43:01;26.10;;;15.13;;
40847;SDS011;26570;50.962;5.340;2022-09-30T05:45:54;33.60;;;17.07;;
40847;SDS011;26570;50.962;5.340;2022-09-30T05:48:40;23.50;;;14.73;;
40847;SDS011;26570;50.962;5.340;2022-09-30T05:51:26;32.47;;;15.17;;
40847;SDS011;26570;50.962;5.340;2022-09-30T05:54:12;25.43;;;16.20;;
40847;SDS011;26570;50.962;5.340;2022-09-30T05:56:58;22.90;;;14.30;;
40847;SDS011;26570;50.962;5.340;2022-09-30T05:59:44;27.83;;;16.57;;
40847;SDS011;26570;50.962;5.340;2022-09-30T06:02:30;35.80;;;18.33;;
40847;SDS011;26570;50.962;5.340;2022-09-30T06:05:20;31.83;;;18.07;;
40847;SDS011;26570;50.962;5.340;2022-09-30T06:08:05;29.70;;;17.07;;
40847;SDS011;26570;50.962;5.340;2022-09-30T06:10:51;39.83;;;22.40;;
40847;SDS011;26570;50.962;5.340;2022-09-30T06:13:37;39.90;;;21.77;;
40847;SDS011;26570;50.962;5.340;2022-09-30T06:16:23;39.53;;;22.90;;
40847;SDS011;26570;50.962;5.340;2022-09-30T06:19:07;38.50;;;20.53;;
40847;SDS011;26570;50.962;5.340;2022-09-30T06:21:53;46.27;;;23.97;;
40847;SDS011;26570;50.962;5.340;2022-09-30T06:24:38;36.07;;;22.47;;
40847;SDS011;26570;50.962;5.340;2022-09-30T06:27:23;38.77;;;21.57;;
40847;SDS011;26570;50.962;5.340;2022-09-30T06:30:12;44.37;;;23.43;;
40847;SDS011;26570;50.962;5.340;2022-09-30T06:32:58;36.83;;;23.80;;
40847;SDS011;26570;50.962;5.340;2022-09-30T06:35:43;42.20;;;23.80;;
40847;SDS011;26570;50.962;5.340;2022-09-30T06:38:30;26.33;;;17.73;;
40847;SDS011;26570;50.962;5.340;2022-09-30T06:41:16;28.13;;;16.60;;
40847;SDS011;26570;50.962;5.340;2022-09-30T06:44:01;22.23;;;14.57;;
40847;SDS011;26570;50.962;5.340;2022-09-30T06:46:46;16.33;;;12.30;;
40847;SDS011;26570;50.962;5.340;2022-09-30T06:49:30;16.70;;;10.70;;
40847;SDS011;26570;50.962;5.340;2022-09-30T06:52:15;12.10;;;8.83;;
40847;SDS011;26570;50.962;5.340;2022-09-30T06:55:00;12.40;;;8.20;;
40847;SDS011;26570;50.962;5.340;2022-09-30T06:57:45;8.57;;;7.17;;
40847;SDS011;26570;50.962;5.340;2022-09-30T07:00:30;12.17;;;6.63;;
40847;SDS011;26570;50.962;5.340;2022-09-30T07:03:20;11.83;;;6.23;;
40847;SDS011;26570;50.962;5.340;2022-09-30T07:06:08;7.97;;;5.23;;
40847;SDS011;26570;50.962;5.340;2022-09-30T07:08:53;7.70;;;5.53;;
40847;SDS011;26570;50.962;5.340;2022-09-30T07:11:39;6.00;;;4.70;;
40847;SDS011;26570;50.962;5.340;2022-09-30T07:14:24;6.37;;;4.80;;
40847;SDS011;26570;50.962;5.340;2022-09-30T07:17:08;9.17;;;5.40;;
40847;SDS011;26570;50.962;5.340;2022-09-30T07:19:53;7.37;;;6.03;;
40847;SDS011;26570;50.962;5.340;2022-09-30T07:22:38;9.07;;;5.60;;
40847;SDS011;26570;50.962;5.340;2022-09-30T07:25:23;8.73;;;7.55;;
40847;SDS011;26570;50.962;5.340;2022-09-30T07:28:08;16.05;;;10.32;;
40847;SDS011;26570;50.962;5.340;2022-09-30T07:30:53;18.05;;;12.07;;
40847;SDS011;26570;50.962;5.340;2022-09-30T07:33:42;16.55;;;12.02;;
40847;SDS011;26570;50.962;5.340;2022-09-30T07:36:27;17.73;;;13.07;;
40847;SDS011;26570;50.962;5.340;2022-09-30T07:39:14;21.45;;;14.15;;
40847;SDS011;26570;50.962;5.340;2022-09-30T07:41:58;16.08;;;13.43;;
40847;SDS011;26570;50.962;5.340;2022-09-30T07:44:45;16.50;;;12.35;;
40847;SDS011;26570;50.962;5.340;2022-09-30T07:47:30;21.63;;;12.98;;
40847;SDS011;26570;50.962;5.340;2022-09-30T07:50:14;19.10;;;12.30;;
40847;SDS011;26570;50.962;5.340;2022-09-30T07:53:00;16.98;;;12.10;;
40847;SDS011;26570;50.962;5.340;2022-09-30T07:55:45;16.13;;;11.43;;
40847;SDS011;26570;50.962;5.340;2022-09-30T07:58:30;15.38;;;11.73;;
40847;SDS011;26570;50.962;5.340;2022-09-30T08:01:15;17.98;;;11.80;;
40847;SDS011;26570;50.962;5.340;2022-09-30T08:04:01;17.25;;;13.02;;
40847;SDS011;26570;50.962;5.340;2022-09-30T08:06:49;15.90;;;13.13;;
40847;SDS011;26570;50.962;5.340;2022-09-30T08:09:36;15.07;;;12.32;;
40847;SDS011;26570;50.962;5.340;2022-09-30T08:12:22;17.38;;;13.88;;
40847;SDS011;26570;50.962;5.340;2022-09-30T08:15:07;18.80;;;14.00;;
40847;SDS011;26570;50.962;5.340;2022-09-30T08:17:52;19.45;;;13.73;;
40847;SDS011;26570;50.962;5.340;2022-09-30T08:20:37;21.83;;;13.70;;
40847;SDS011;26570;50.962;5.340;2022-09-30T08:23:22;19.33;;;12.68;;
40847;SDS011;26570;50.962;5.340;2022-09-30T08:26:08;17.40;;;13.05;;
40847;SDS011;26570;50.962;5.340;2022-09-30T08:28:55;16.38;;;12.35;;
40847;SDS011;26570;50.962;5.340;2022-09-30T08:31:40;17.60;;;12.35;;
40847;SDS011;26570;50.962;5.340;2022-09-30T08:34:32;16.15;;;12.25;;
40847;SDS011;26570;50.962;5.340;2022-09-30T08:37:18;15.00;;;12.18;;
40847;SDS011;26570;50.962;5.340;2022-09-30T08:40:03;15.80;;;12.30;;
40847;SDS011;26570;50.962;5.340;2022-09-30T08:46:09;17.65;;;12.48;;
40847;SDS011;26570;50.962;5.340;2022-09-30T08:52:17;17.73;;;10.65;;
40847;SDS011;26570;50.962;5.340;2022-09-30T08:55:05;14.77;;;11.18;;
40847;SDS011;26570;50.962;5.340;2022-09-30T08:57:52;14.75;;;10.20;;
40847;SDS011;26570;50.962;5.340;2022-09-30T09:00:39;13.05;;;10.32;;
40847;SDS011;26570;50.962;5.340;2022-09-30T09:03:27;15.00;;;9.77;;
40847;SDS011;26570;50.962;5.340;2022-09-30T09:09:09;17.45;;;10.90;;
40847;SDS011;26570;50.962;5.340;2022-09-30T09:15:24;16.05;;;11.52;;
40847;SDS011;26570;50.962;5.340;2022-09-30T09:18:34;19.17;;;11.63;;
40847;SDS011;26570;50.962;5.340;2022-09-30T09:21:29;14.38;;;11.02;;
40847;SDS011;26570;50.962;5.340;2022-09-30T09:24:16;16.05;;;10.95;;
40847;SDS011;26570;50.962;5.340;2022-09-30T09:32:58;15.38;;;11.32;;
40847;SDS011;26570;50.962;5.340;2022-09-30T09:38:43;17.77;;;10.57;;
40847;SDS011;26570;50.962;5.340;2022-09-30T09:44:57;24.45;;;12.60;;
40847;SDS011;26570;50.962;5.340;2022-09-30T09:47:50;26.97;;;14.47;;
40847;SDS011;26570;50.962;5.340;2022-09-30T09:50:41;32.20;;;15.07;;
40847;SDS011;26570;50.962;5.340;2022-09-30T09:56:29;24.60;;;12.30;;
40847;SDS011;26570;50.962;5.340;2022-09-30T09:59:16;25.40;;;12.17;;
40847;SDS011;26570;50.962;5.340;2022-09-30T10:02:02;24.20;;;12.47;;
40847;SDS011;26570;50.962;5.340;2022-09-30T10:05:04;20.93;;;9.97;;
40847;SDS011;26570;50.962;5.340;2022-09-30T10:08:08;21.37;;;10.40;;
40847;SDS011;26570;50.962;5.340;2022-09-30T10:11:04;23.37;;;10.17;;
40847;SDS011;26570;50.962;5.340;2022-09-30T10:14:10;16.37;;;8.20;;
40847;SDS011;26570;50.962;5.340;2022-09-30T10:17:03;13.90;;;6.30;;
40847;SDS011;26570;50.962;5.340;2022-09-30T10:19:49;18.87;;;6.83;;
40847;SDS011;26570;50.962;5.340;2022-09-30T10:23:02;9.60;;;4.43;;
40847;SDS011;26570;50.962;5.340;2022-09-30T10:25:58;8.57;;;4.10;;
40847;SDS011;26570;50.962;5.340;2022-09-30T10:29:01;5.47;;;2.77;;
40847;SDS011;26570;50.962;5.340;2022-09-30T10:31:49;4.77;;;1.03;;
40847;SDS011;26570;50.962;5.340;2022-09-30T10:34:36;3.40;;;0.80;;
40847;SDS011;26570;50.962;5.340;2022-09-30T10:37:26;4.67;;;0.93;;
40847;SDS011;26570;50.962;5.340;2022-09-30T10:40:11;3.47;;;1.03;;
40847;SDS011;26570;50.962;5.340;2022-09-30T10:43:00;11.50;;;1.13;;
40847;SDS011;26570;50.962;5.340;2022-09-30T10:45:45;4.07;;;0.83;;
40847;SDS011;26570;50.962;5.340;2022-09-30T10:48:32;1.37;;;0.60;;
40847;SDS011;26570;50.962;5.340;2022-09-30T10:51:31;1.47;;;0.50;;
40847;SDS011;26570;50.962;5.340;2022-09-30T10:57:39;2.10;;;0.50;;
40847;SDS011;26570;50.962;5.340;2022-09-30T11:00:24;2.20;;;0.53;;
40847;SDS011;26570;50.962;5.340;2022-09-30T11:03:12;1.53;;;0.50;;
40847;SDS011;26570;50.962;5.340;2022-09-30T11:05:59;2.27;;;0.50;;
40847;SDS011;26570;50.962;5.340;2022-09-30T11:08:50;2.10;;;0.40;;
40847;SDS011;26570;50.962;5.340;2022-09-30T11:11:42;3.00;;;0.27;;
40847;SDS011;26570;50.962;5.340;2022-09-30T11:17:27;1.27;;;0.27;;
40847;SDS011;26570;50.962;5.340;2022-09-30T11:20:38;2.30;;;0.30;;
40847;SDS011;26570;50.962;5.340;2022-09-30T11:29:34;0.83;;;0.23;;
40847;SDS011;26570;50.962;5.340;2022-09-30T11:35:50;1.17;;;0.30;;
40847;SDS011;26570;50.962;5.340;2022-09-30T11:41:45;1.67;;;0.40;;
40847;SDS011;26570;50.962;5.340;2022-09-30T11:44:43;1.07;;;0.30;;
40847;SDS011;26570;50.962;5.340;2022-09-30T11:47:34;0.90;;;0.20;;
40847;SDS011;26570;50.962;5.340;2022-09-30T11:50:51;1.37;;;0.20;;
40847;SDS011;26570;50.962;5.340;2022-09-30T11:56:37;0.83;;;0.20;;
40847;SDS011;26570;50.962;5.340;2022-09-30T11:59:27;1.50;;;0.40;;
40847;SDS011;26570;50.962;5.340;2022-09-30T12:05:06;2.70;;;0.40;;
40847;SDS011;26570;50.962;5.340;2022-09-30T12:08:14;1.13;;;0.40;;
40847;SDS011;26570;50.962;5.340;2022-09-30T12:14:05;2.40;;;0.20;;
40847;SDS011;26570;50.962;5.340;2022-09-30T12:17:02;1.13;;;0.20;;
40847;SDS011;26570;50.962;5.340;2022-09-30T12:19:52;0.73;;;0.20;;
40847;SDS011;26570;50.962;5.340;2022-09-30T12:22:45;0.50;;;0.20;;
40847;SDS011;26570;50.962;5.340;2022-09-30T12:25:31;1.43;;;0.30;;
40847;SDS011;26570;50.962;5.340;2022-09-30T12:41:31;0.60;;;0.17;;
40847;SDS011;26570;50.962;5.340;2022-09-30T12:44:42;1.37;;;0.20;;
40847;SDS011;26570;50.962;5.340;2022-09-30T12:47:47;0.60;;;0.20;;
40847;SDS011;26570;50.962;5.340;2022-09-30T12:50:44;2.00;;;0.30;;
40847;SDS011;26570;50.962;5.340;2022-09-30T12:53:36;1.43;;;0.30;;
40847;SDS011;26570;50.962;5.340;2022-09-30T12:56:25;1.93;;;0.20;;
40847;SDS011;26570;50.962;5.340;2022-09-30T12:59:12;2.30;;;0.20;;
40847;SDS011;26570;50.962;5.340;2022-09-30T13:01:59;1.23;;;0.30;;
40847;SDS011;26570;50.962;5.340;2022-09-30T13:04:47;1.90;;;0.40;;
40847;SDS011;26570;50.962;5.340;2022-09-30T13:07:34;1.83;;;0.30;;
40847;SDS011;26570;50.962;5.340;2022-09-30T13:10:55;3.40;;;0.30;;
40847;SDS011;26570;50.962;5.340;2022-09-30T13:13:31;1.00;;;0.40;;
40847;SDS011;26570;50.962;5.340;2022-09-30T13:16:56;2.20;;;0.33;;
40847;SDS011;26570;50.962;5.340;2022-09-30T13:19:45;1.40;;;0.30;;
40847;SDS011;26570;50.962;5.340;2022-09-30T13:22:40;1.10;;;0.30;;
40847;SDS011;26570;50.962;5.340;2022-09-30T13:25:26;1.83;;;0.30;;
40847;SDS011;26570;50.962;5.340;2022-09-30T13:28:36;0.80;;;0.20;;
40847;SDS011;26570;50.962;5.340;2022-09-30T13:31:22;1.15;;;0.20;;
40847;SDS011;26570;50.962;5.340;2022-09-30T13:34:12;1.42;;;0.20;;
40847;SDS011;26570;50.962;5.340;2022-09-30T13:37:04;2.10;;;0.20;;
40847;SDS011;26570;50.962;5.340;2022-09-30T13:40:13;3.03;;;0.20;;
40847;SDS011;26570;50.962;5.340;2022-09-30T13:43:01;0.60;;;0.20;;
40847;SDS011;26570;50.962;5.340;2022-09-30T13:45:48;0.87;;;0.20;;
40847;SDS011;26570;50.962;5.340;2022-09-30T13:48:37;2.73;;;0.20;;
40847;SDS011;26570;50.962;5.340;2022-09-30T13:51:26;1.00;;;0.33;;
40847;SDS011;26570;50.962;5.340;2022-09-30T13:54:24;1.38;;;0.20;;
40847;SDS011;26570;50.962;5.340;2022-09-30T13:57:17;1.43;;;0.20;;
40847;SDS011;26570;50.962;5.340;2022-09-30T14:00:09;0.50;;;0.20;;
40847;SDS011;26570;50.962;5.340;2022-09-30T14:03:21;1.00;;;0.10;;
40847;SDS011;26570;50.962;5.340;2022-09-30T14:12:42;0.97;;;0.10;;
40847;SDS011;26570;50.962;5.340;2022-09-30T14:22:04;1.43;;;0.20;;
40847;SDS011;26570;50.962;5.340;2022-09-30T14:24:51;0.50;;;0.10;;
40847;SDS011;26570;50.962;5.340;2022-09-30T14:30:40;1.40;;;0.20;;
40847;SDS011;26570;50.962;5.340;2022-09-30T14:33:47;2.70;;;0.10;;
40847;SDS011;26570;50.962;5.340;2022-09-30T14:36:33;0.70;;;0.10;;
40847;SDS011;26570;50.962;5.340;2022-09-30T14:39:20;3.03;;;0.10;;
40847;SDS011;26570;50.962;5.340;2022-09-30T14:42:09;2.07;;;0.10;;
40847;SDS011;26570;50.962;5.340;2022-09-30T14:45:00;3.47;;;0.10;;
40847;SDS011;26570;50.962;5.340;2022-09-30T14:47:50;2.17;;;0.10;;
40847;SDS011;26570;50.962;5.340;2022-09-30T14:50:43;1.40;;;0.23;;
40847;SDS011;26570;50.962;5.340;2022-09-30T14:53:34;1.40;;;0.10;;
40847;SDS011;26570;50.962;5.340;2022-09-30T14:56:26;1.43;;;0.20;;
40847;SDS011;26570;50.962;5.340;2022-09-30T14:59:18;1.07;;;0.20;;
40847;SDS011;26570;50.962;5.340;2022-09-30T15:02:12;1.60;;;0.20;;
40847;SDS011;26570;50.962;5.340;2022-09-30T15:05:01;1.07;;;0.10;;
40847;SDS011;26570;50.962;5.340;2022-09-30T15:07:47;1.10;;;0.17;;
40847;SDS011;26570;50.962;5.340;2022-09-30T15:10:33;2.20;;;0.10;;
40847;SDS011;26570;50.962;5.340;2022-09-30T15:13:18;2.43;;;0.20;;
40847;SDS011;26570;50.962;5.340;2022-09-30T15:16:20;3.27;;;0.10;;
40847;SDS011;26570;50.962;5.340;2022-09-30T15:19:11;1.30;;;0.10;;
40847;SDS011;26570;50.962;5.340;2022-09-30T15:22:05;0.80;;;0.10;;
40847;SDS011;26570;50.962;5.340;2022-09-30T15:24:52;0.70;;;0.10;;
40847;SDS011;26570;50.962;5.340;2022-09-30T15:27:38;0.77;;;0.20;;
40847;SDS011;26570;50.962;5.340;2022-09-30T15:30:25;0.57;;;0.10;;
40847;SDS011;26570;50.962;5.340;2022-09-30T15:33:21;3.13;;;0.20;;
40847;SDS011;26570;50.962;5.340;2022-09-30T15:36:14;0.30;;;0.10;;
40847;SDS011;26570;50.962;5.340;2022-09-30T15:39:01;0.70;;;0.10;;
40847;SDS011;26570;50.962;5.340;2022-09-30T15:41:48;1.17;;;0.20;;
40847;SDS011;26570;50.962;5.340;2022-09-30T15:44:35;0.40;;;0.13;;
40847;SDS011;26570;50.962;5.340;2022-09-30T15:47:22;1.70;;;0.20;;
40847;SDS011;26570;50.962;5.340;2022-09-30T15:50:33;1.07;;;0.20;;
40847;SDS011;26570;50.962;5.340;2022-09-30T15:53:23;2.20;;;0.20;;
40847;SDS011;26570;50.962;5.340;2022-09-30T15:56:30;2.10;;;0.10;;
40847;SDS011;26570;50.962;5.340;2022-09-30T15:59:17;0.60;;;0.10;;
40847;SDS011;26570;50.962;5.340;2022-09-30T16:02:03;0.50;;;0.10;;
40847;SDS011;26570;50.962;5.340;2022-09-30T16:04:51;0.77;;;0.20;;
40847;SDS011;26570;50.962;5.340;2022-09-30T16:07:37;0.83;;;0.10;;
40847;SDS011;26570;50.962;5.340;2022-09-30T16:10:25;2.43;;;0.17;;
40847;SDS011;26570;50.962;5.340;2022-09-30T16:13:13;0.80;;;0.20;;
40847;SDS011;26570;50.962;5.340;2022-09-30T16:15:59;0.40;;;0.10;;
40847;SDS011;26570;50.962;5.340;2022-09-30T16:18:44;1.30;;;0.10;;
40847;SDS011;26570;50.962;5.340;2022-09-30T16:27:25;2.50;;;0.10;;
40847;SDS011;26570;50.962;5.340;2022-09-30T16:30:14;0.50;;;0.10;;
40847;SDS011;26570;50.962;5.340;2022-09-30T16:33:04;0.70;;;0.10;;
40847;SDS011;26570;50.962;5.340;2022-09-30T16:35:50;0.70;;;0.20;;
40847;SDS011;26570;50.962;5.340;2022-09-30T16:38:35;1.17;;;0.20;;
40847;SDS011;26570;50.962;5.340;2022-09-30T16:41:20;2.17;;;0.20;;
40847;SDS011;26570;50.962;5.340;2022-09-30T16:44:05;0.40;;;0.10;;
40847;SDS011;26570;50.962;5.340;2022-09-30T16:46:50;2.07;;;0.17;;
40847;SDS011;26570;50.962;5.340;2022-09-30T16:49:36;0.50;;;0.10;;
40847;SDS011;26570;50.962;5.340;2022-09-30T16:52:20;1.17;;;0.20;;
40847;SDS011;26570;50.962;5.340;2022-09-30T16:55:06;1.33;;;0.20;;
40847;SDS011;26570;50.962;5.340;2022-09-30T16:57:53;0.87;;;0.20;;
40847;SDS011;26570;50.962;5.340;2022-09-30T17:00:41;1.30;;;0.20;;
40847;SDS011;26570;50.962;5.340;2022-09-30T17:03:27;2.53;;;0.20;;
40847;SDS011;26570;50.962;5.340;2022-09-30T17:06:24;1.30;;;0.27;;
40847;SDS011;26570;50.962;5.340;2022-09-30T17:09:23;1.30;;;0.30;;
40847;SDS011;26570;50.962;5.340;2022-09-30T17:12:11;1.43;;;0.30;;
40847;SDS011;26570;50.962;5.340;2022-09-30T17:14:58;1.07;;;0.27;;
40847;SDS011;26570;50.962;5.340;2022-09-30T17:17:44;1.60;;;0.30;;
40847;SDS011;26570;50.962;5.340;2022-09-30T17:20:31;1.27;;;0.50;;
40847;SDS011;26570;50.962;5.340;2022-09-30T17:23:19;0.93;;;0.30;;
40847;SDS011;26570;50.962;5.340;2022-09-30T17:26:08;1.13;;;0.40;;
40847;SDS011;26570;50.962;5.340;2022-09-30T17:28:53;1.23;;;0.30;;
40847;SDS011;26570;50.962;5.340;2022-09-30T17:31:40;0.63;;;0.30;;
40847;SDS011;26570;50.962;5.340;2022-09-30T17:34:26;1.07;;;0.30;;
40847;SDS011;26570;50.962;5.340;2022-09-30T17:37:12;1.33;;;0.40;;
40847;SDS011;26570;50.962;5.340;2022-09-30T17:39:58;3.77;;;0.30;;
40847;SDS011;26570;50.962;5.340;2022-09-30T17:42:44;1.10;;;0.30;;
40847;SDS011;26570;50.962;5.340;2022-09-30T17:45:48;1.37;;;0.30;;
40847;SDS011;26570;50.962;5.340;2022-09-30T17:48:35;0.90;;;0.30;;
40847;SDS011;26570;50.962;5.340;2022-09-30T17:51:23;2.33;;;0.30;;
40847;SDS011;26570;50.962;5.340;2022-09-30T17:54:08;0.70;;;0.20;;
40847;SDS011;26570;50.962;5.340;2022-09-30T17:56:55;2.00;;;0.30;;
40847;SDS011;26570;50.962;5.340;2022-09-30T17:59:41;0.97;;;0.40;;
40847;SDS011;26570;50.962;5.340;2022-09-30T18:02:28;2.30;;;0.40;;
40847;SDS011;26570;50.962;5.340;2022-09-30T18:05:15;4.33;;;0.37;;
40847;SDS011;26570;50.962;5.340;2022-09-30T18:08:01;3.63;;;0.40;;
40847;SDS011;26570;50.962;5.340;2022-09-30T18:10:47;2.23;;;0.50;;
40847;SDS011;26570;50.962;5.340;2022-09-30T18:13:33;2.60;;;0.40;;
40847;SDS011;26570;50.962;5.340;2022-09-30T18:16:20;4.07;;;0.40;;
40847;SDS011;26570;50.962;5.340;2022-09-30T18:19:07;2.10;;;0.50;;
40847;SDS011;26570;50.962;5.340;2022-09-30T18:21:53;2.67;;;0.50;;
40847;SDS011;26570;50.962;5.340;2022-09-30T18:24:38;1.33;;;0.40;;
40847;SDS011;26570;50.962;5.340;2022-09-30T18:27:42;3.28;;;0.60;;
40847;SDS011;26570;50.962;5.340;2022-09-30T18:30:28;4.00;;;0.60;;
40847;SDS011;26570;50.962;5.340;2022-09-30T18:33:14;3.77;;;0.60;;
40847;SDS011;26570;50.962;5.340;2022-09-30T18:36:00;3.43;;;0.50;;
40847;SDS011;26570;50.962;5.340;2022-09-30T18:38:49;2.63;;;0.50;;
40847;SDS011;26570;50.962;5.340;2022-09-30T18:41:35;3.97;;;0.57;;
40847;SDS011;26570;50.962;5.340;2022-09-30T18:44:24;4.77;;;0.70;;
40847;SDS011;26570;50.962;5.340;2022-09-30T18:47:09;2.63;;;0.57;;
40847;SDS011;26570;50.962;5.340;2022-09-30T18:49:55;2.17;;;0.50;;
40847;SDS011;26570;50.962;5.340;2022-09-30T18:52:40;3.43;;;0.50;;
40847;SDS011;26570;50.962;5.340;2022-09-30T18:55:26;2.63;;;0.40;;
40847;SDS011;26570;50.962;5.340;2022-09-30T18:58:12;1.40;;;0.50;;
40847;SDS011;26570;50.962;5.340;2022-09-30T19:01:00;3.03;;;1.00;;
40847;SDS011;26570;50.962;5.340;2022-09-30T19:03:49;2.90;;;0.50;;
40847;SDS011;26570;50.962;5.340;2022-09-30T19:06:36;3.10;;;0.60;;
40847;SDS011;26570;50.962;5.340;2022-09-30T19:09:22;1.80;;;0.60;;
40847;SDS011;26570;50.962;5.340;2022-09-30T19:12:09;2.03;;;0.40;;
40847;SDS011;26570;50.962;5.340;2022-09-30T19:14:55;3.27;;;0.50;;
40847;SDS011;26570;50.962;5.340;2022-09-30T19:17:41;4.20;;;0.70;;
40847;SDS011;26570;50.962;5.340;2022-09-30T19:20:27;2.53;;;0.60;;
40847;SDS011;26570;50.962;5.340;2022-09-30T19:23:12;3.00;;;0.60;;